Time;durP1;ratioP1;P1;durP2;ratioP2;P2;SDS_P1;SDS_P2;PMS_P1;PMS_P2;Temp;Humidity;BMP_temperature;BMP_pressure;BME280_temperature;BME280_humidity;BME280_pressure;Samples;Min_cycle;Max_cycle;Signal;HPM_P1;HPM_P2
2023/07/31 00:00:28;;;;;;;9.07;2.50;;;17.20;99.90;;;;;;4978583;28;20400;-65
2023/07/31 00:02:54;;;;;;;6.70;2.75;;;17.00;99.90;;;;;;4981742;28;20042;-66
2023/07/31 00:05:20;;;;;;;9.75;2.80;;;17.50;99.90;;;;;;4979653;28;20042;-65
2023/07/31 00:07:46;;;;;;;6.95;3.00;;;17.00;99.90;;;;;;4981872;28;20061;-65
2023/07/31 00:10:11;;;;;;;8.88;2.53;;;17.30;99.90;;;;;;4985835;28;20061;-66
2023/07/31 00:12:39;;;;;;;13.55;3.00;;;17.30;99.90;;;;;;4991315;28;20042;-66
2023/07/31 00:15:06;;;;;;;7.55;2.08;;;17.30;99.90;;;;;;4981403;28;20050;-66
2023/07/31 00:17:32;;;;;;;8.98;2.40;;;17.50;99.90;;;;;;4981396;28;20263;-66
2023/07/31 00:19:58;;;;;;;9.35;2.88;;;17.30;99.90;;;;;;4988767;28;20403;-66
2023/07/31 00:22:23;;;;;;;9.40;2.50;;;17.10;99.90;;;;;;4976908;28;20116;-66
2023/07/31 00:24:49;;;;;;;10.40;3.45;;;18.10;99.90;;;;;;4981920;28;20451;-65
2023/07/31 00:27:15;;;;;;;7.53;2.38;;;17.10;99.90;;;;;;4978824;28;20045;-67
2023/07/31 00:29:41;;;;;;;9.38;2.10;;;16.70;99.90;;;;;;4989437;28;20034;-66
2023/07/31 00:32:07;;;;;;;8.63;2.58;;;17.20;99.90;;;;;;4994212;28;20045;-66
2023/07/31 00:34:33;;;;;;;7.45;2.40;;;;;;;;;;4984464;28;20030;-66
2023/07/31 00:36:58;;;;;;;7.57;2.22;;;17.20;99.90;;;;;;4979345;28;20054;-66
2023/07/31 00:39:24;;;;;;;9.10;2.50;;;17.20;99.90;;;;;;4989727;28;20038;-65
2023/07/31 00:41:49;;;;;;;7.80;2.40;;;17.20;99.90;;;;;;4996220;28;20049;-66
2023/07/31 00:44:15;;;;;;;9.50;2.80;;;17.60;99.90;;;;;;4986693;28;20466;-66
2023/07/31 00:46:41;;;;;;;7.53;2.63;;;17.20;99.90;;;;;;4995806;28;20392;-65
2023/07/31 00:49:08;;;;;;;9.13;2.88;;;17.10;99.90;;;;;;4979496;28;20256;-66
2023/07/31 00:51:34;;;;;;;12.60;2.85;;;17.10;99.90;;;;;;4993911;28;20484;-65
2023/07/31 00:54:00;;;;;;;7.93;2.42;;;17.40;99.90;;;;;;4976984;28;20070;-66
2023/07/31 00:56:27;;;;;;;8.43;2.55;;;16.70;99.90;;;;;;4979187;28;20039;-66
2023/07/31 00:58:53;;;;;;;6.55;2.35;;;17.20;99.90;;;;;;4987814;28;20046;-64
2023/07/31 01:01:21;;;;;;;8.90;2.50;;;17.30;99.90;;;;;;4996275;28;20034;-66
2023/07/31 01:03:48;;;;;;;6.68;2.08;;;16.80;99.90;;;;;;4986471;28;20050;-65
2023/07/31 01:06:23;;;;;;;8.30;2.45;;;17.80;99.90;;;;;;4985994;28;20053;-65
2023/07/31 01:08:58;;;;;;;;;;;17.00;99.90;;;;;;4985643;28;20046;-66
2023/07/31 01:11:45;;;;;;;9.75;2.78;;;17.10;99.90;;;;;;4977154;28;19917;-65
2023/07/31 01:14:11;;;;;;;6.22;2.70;;;16.80;99.90;;;;;;4983995;28;20253;-65
2023/07/31 01:16:37;;;;;;;9.55;3.22;;;16.80;99.90;;;;;;4989682;28;20452;-65
2023/07/31 01:19:02;;;;;;;10.23;2.97;;;17.10;99.90;;;;;;4985968;28;20033;-65
2023/07/31 01:21:52;;;;;;;9.07;2.92;;;16.80;99.90;;;;;;4995739;28;20081;-66
2023/07/31 01:24:35;;;;;;;9.95;3.08;;;16.90;99.90;;;;;;5010623;28;20046;-64
2023/07/31 01:27:10;;;;;;;10.48;3.25;;;16.60;99.90;;;;;;4990407;28;20525;-65
2023/07/31 01:29:45;;;;;;;;;;;16.50;99.90;;;;;;4995146;28;20046;-66
2023/07/31 01:32:11;;;;;;;;;;;16.70;99.90;;;;;;4983220;28;20046;-65
2023/07/31 01:34:37;;;;;;;8.88;3.10;;;16.20;99.90;;;;;;4982176;28;19917;-64
2023/07/31 01:37:03;;;;;;;12.77;4.93;;;16.50;99.90;;;;;;4975387;28;20047;-63
2023/07/31 01:39:29;;;;;;;8.82;2.97;;;16.10;99.90;;;;;;4979647;28;20497;-65
2023/07/31 01:41:54;;;;;;;11.75;3.50;;;16.50;99.90;;;;;;4989064;28;20039;-65
2023/07/31 01:44:20;;;;;;;9.07;4.28;;;16.20;99.90;;;;;;4989244;28;20034;-64
2023/07/31 01:46:46;;;;;;;9.10;3.33;;;16.70;99.90;;;;;;4991558;28;20056;-65
2023/07/31 01:49:11;;;;;;;9.18;2.97;;;16.20;99.90;;;;;;4979520;28;20449;-63
2023/07/31 01:51:37;;;;;;;8.07;2.67;;;16.20;99.90;;;;;;4991110;28;20049;-65
2023/07/31 01:54:03;;;;;;;9.07;2.60;;;16.70;99.90;;;;;;4983342;28;20049;-65
2023/07/31 01:56:28;;;;;;;7.78;3.00;;;16.00;99.90;;;;;;4985007;28;20168;-64
2023/07/31 01:58:54;;;;;;;13.73;2.97;;;16.40;99.90;;;;;;4979527;28;20457;-64
2023/07/31 02:01:20;;;;;;;11.70;3.97;;;16.30;99.90;;;;;;4987955;28;20037;-65
2023/07/31 02:03:45;;;;;;;7.85;3.30;;;16.30;99.90;;;;;;4992148;28;20078;-64
2023/07/31 02:06:11;;;;;;;9.05;3.50;;;16.60;99.90;;;;;;4980645;28;20053;-64
2023/07/31 02:08:37;;;;;;;11.88;3.95;;;16.00;99.90;;;;;;4980463;28;20035;-65
2023/07/31 02:11:03;;;;;;;8.02;3.20;;;16.40;99.90;;;;;;4977014;28;20129;-64
2023/07/31 02:13:29;;;;;;;10.68;3.13;;;16.10;1.00;;;;;;4980904;28;20047;-63
2023/07/31 02:15:54;;;;;;;11.75;3.17;;;16.10;1.00;;;;;;4987449;28;20042;-64
2023/07/31 02:18:20;;;;;;;10.43;2.95;;;16.20;1.00;;;;;;4981478;28;20057;-64
2023/07/31 02:20:52;;;;;;;8.38;3.47;;;16.40;1.00;;;;;;4981564;28;20049;-64
2023/07/31 02:23:21;;;;;;;10.75;2.67;;;16.70;1.00;;;;;;4988901;28;20049;-63
2023/07/31 02:25:47;;;;;;;10.77;3.28;;;16.20;1.00;;;;;;4980169;28;20050;-63
2023/07/31 02:28:12;;;;;;;8.70;2.95;;;16.60;1.00;;;;;;4989724;28;20038;-63
2023/07/31 02:30:38;;;;;;;11.55;2.88;;;15.60;1.00;;;;;;4985307;28;20045;-63
2023/07/31 02:33:05;;;;;;;8.38;2.75;;;16.40;1.00;;;;;;5144768;23;20353;-71
2023/07/31 02:35:31;;;;;;;8.48;3.35;;;16.10;1.00;;;;;;4973613;28;20042;-71
2023/07/31 02:37:56;;;;;;;7.88;3.13;;;16.10;1.00;;;;;;4987891;28;20038;-71
2023/07/31 02:40:23;;;;;;;13.20;2.92;;;16.10;1.00;;;;;;4983750;28;20122;-72
2023/07/31 02:42:48;;;;;;;8.25;2.63;;;16.30;1.00;;;;;;4966800;28;20527;-73
2023/07/31 02:45:14;;;;;;;6.13;2.83;;;16.60;1.00;;;;;;4970174;28;20035;-72
2023/07/31 02:47:40;;;;;;;9.90;2.83;;;15.80;1.00;;;;;;4972830;28;20070;-71
2023/07/31 02:50:06;;;;;;;8.93;2.72;;;16.00;1.00;;;;;;4975886;28;20030;-70
2023/07/31 02:52:32;;;;;;;7.93;3.33;;;15.90;1.00;;;;;;4971551;28;20039;-70
2023/07/31 02:54:58;;;;;;;9.50;3.20;;;15.80;1.00;;;;;;4966047;28;20065;-70
2023/07/31 02:57:24;;;;;;;9.35;3.78;;;16.00;1.00;;;;;;4968899;28;20553;-70
2023/07/31 02:59:49;;;;;;;7.70;2.50;;;16.30;1.00;;;;;;4968690;28;20154;-70
2023/07/31 03:02:15;;;;;;;10.10;3.03;;;16.20;1.00;;;;;;4963361;28;20051;-71
2023/07/31 03:04:41;;;;;;;8.13;2.38;;;16.10;1.00;;;;;;4970504;28;20046;-70
2023/07/31 03:07:06;;;;;;;6.75;2.80;;;16.00;1.00;;;;;;5045847;23;20043;-68
2023/07/31 03:09:32;;;;;;;8.05;1.90;;;16.30;1.00;;;;;;4971324;28;20519;-67
2023/07/31 03:11:58;;;;;;;6.22;2.22;;;15.40;1.00;;;;;;4973210;28;20064;-67
2023/07/31 03:14:26;;;;;;;5.82;2.45;;;15.80;1.00;;;;;;4971327;28;20042;-67
2023/07/31 03:16:52;;;;;;;6.93;2.47;;;15.80;1.00;;;;;;4969923;28;20105;-67
2023/07/31 03:19:17;;;;;;;5.85;2.53;;;15.70;1.00;;;;;;4963539;28;20047;-66
2023/07/31 03:21:43;;;;;;;5.78;2.60;;;16.00;1.00;;;;;;4971087;28;20039;-66
2023/07/31 03:24:09;;;;;;;6.45;2.55;;;15.40;1.00;;;;;;4971360;28;20035;-66
2023/07/31 03:26:36;;;;;;;5.68;2.38;;;16.00;1.00;;;;;;4964854;28;20425;-66
2023/07/31 03:29:02;;;;;;;7.18;3.13;;;15.90;1.00;;;;;;4963206;28;20035;-66
2023/07/31 03:31:27;;;;;;;6.05;2.67;;;15.90;1.70;;;;;;4963436;28;20041;-66
2023/07/31 03:33:53;;;;;;;5.05;2.30;;;15.20;6.70;;;;;;4965765;28;20460;-66
2023/07/31 03:36:19;;;;;;;7.10;3.03;;;15.60;17.00;;;;;;4962778;28;20035;-66
2023/07/31 03:38:45;;;;;;;6.38;2.17;;;15.40;14.40;;;;;;4967036;28;20079;-66
2023/07/31 03:41:11;;;;;;;6.15;1.90;;;15.50;18.00;;;;;;4966490;28;20393;-65
2023/07/31 03:43:37;;;;;;;5.75;1.90;;;15.30;32.00;;;;;;4960656;28;20141;-66
2023/07/31 03:46:02;;;;;;;6.60;2.05;;;15.50;29.30;;;;;;4967800;28;20452;-66
2023/07/31 03:48:29;;;;;;;4.82;1.88;;;15.50;14.50;;;;;;4969748;28;20416;-66
2023/07/31 03:50:55;;;;;;;5.15;1.98;;;15.60;26.20;;;;;;4965061;28;20039;-66
2023/07/31 03:53:21;;;;;;;5.18;1.70;;;15.20;18.20;;;;;;4968815;28;20046;-66
2023/07/31 03:55:46;;;;;;;5.95;1.90;;;15.70;26.40;;;;;;4969623;28;20043;-66
2023/07/31 03:58:12;;;;;;;5.72;2.50;;;15.30;24.10;;;;;;4966365;28;20045;-66
2023/07/31 04:00:39;;;;;;;5.40;2.10;;;15.40;19.00;;;;;;4963573;28;20290;-66
2023/07/31 04:03:05;;;;;;;4.80;1.88;;;16.10;25.90;;;;;;4960245;28;20043;-66
2023/07/31 04:05:32;;;;;;;5.25;2.22;;;15.70;33.20;;;;;;4967489;28;20382;-66
2023/07/31 04:07:58;;;;;;;4.57;1.95;;;15.20;34.50;;;;;;4955324;28;20098;-66
2023/07/31 04:10:23;;;;;;;5.88;1.80;;;15.60;43.70;;;;;;4965489;28;20031;-66
2023/07/31 04:12:49;;;;;;;5.57;2.25;;;15.60;37.40;;;;;;4964901;28;20049;-66
2023/07/31 04:15:15;;;;;;;6.47;2.30;;;15.70;35.10;;;;;;4970924;28;20457;-66
2023/07/31 04:17:40;;;;;;;6.78;2.40;;;16.10;36.50;;;;;;4960745;28;20027;-66
2023/07/31 04:20:06;;;;;;;5.00;2.00;;;15.40;46.80;;;;;;4960640;28;20532;-66
2023/07/31 04:22:32;;;;;;;9.02;2.80;;;15.60;53.40;;;;;;4963196;28;20034;-66
2023/07/31 04:24:58;;;;;;;7.10;2.47;;;15.90;60.70;;;;;;4960200;28;20043;-66
2023/07/31 04:27:25;;;;;;;7.07;2.83;;;15.70;70.00;;;;;;4966758;28;20233;-66
2023/07/31 04:29:50;;;;;;;7.57;2.58;;;15.70;70.40;;;;;;4972382;28;20089;-66
2023/07/31 04:32:16;;;;;;;9.00;4.00;;;15.90;70.20;;;;;;4972805;28;20122;-66
2023/07/31 04:34:42;;;;;;;9.00;4.00;;;16.00;54.60;;;;;;4966231;28;20519;-66
2023/07/31 04:37:08;;;;;;;11.07;4.00;;;16.40;75.00;;;;;;4963711;28;20048;-66
2023/07/31 04:39:34;;;;;;;12.23;4.68;;;16.30;61.20;;;;;;4968840;28;20110;-66
2023/07/31 04:41:59;;;;;;;18.00;5.72;;;15.90;52.60;;;;;;4964480;28;20154;-66
2023/07/31 04:44:26;;;;;;;11.27;5.00;;;16.40;67.40;;;;;;4958399;28;20106;-66
2023/07/31 04:46:52;;;;;;;13.95;5.30;;;16.10;67.80;;;;;;4970837;28;20042;-66
2023/07/31 04:49:19;;;;;;;11.93;5.88;;;16.60;86.80;;;;;;4961747;28;20508;-67
2023/07/31 04:51:44;;;;;;;14.32;5.38;;;16.10;92.70;;;;;;4964126;28;20039;-66
2023/07/31 04:54:12;;;;;;;19.90;7.00;;;16.50;88.80;;;;;;4969872;28;20031;-66
2023/07/31 04:56:38;;;;;;;11.15;5.55;;;16.80;97.40;;;;;;4970343;28;20062;-66
2023/07/31 04:59:04;;;;;;;16.00;5.75;;;16.40;99.90;;;;;;4963580;28;20066;-66
2023/07/31 05:01:29;;;;;;;16.50;5.82;;;16.60;99.90;;;;;;4966371;28;20043;-66
2023/07/31 05:03:55;;;;;;;12.90;5.18;;;16.10;99.90;;;;;;4965067;28;20106;-66
2023/07/31 05:06:20;;;;;;;16.35;5.78;;;16.40;99.90;;;;;;4955736;28;20405;-66
2023/07/31 05:08:46;;;;;;;13.02;5.45;;;16.50;99.90;;;;;;4969955;28;20122;-66
2023/07/31 05:11:12;;;;;;;18.75;6.10;;;16.40;99.90;;;;;;4970715;28;20059;-66
2023/07/31 05:13:38;;;;;;;16.85;5.63;;;16.00;99.90;;;;;;4964750;28;20467;-66
2023/07/31 05:16:03;;;;;;;11.93;5.50;;;16.20;99.90;;;;;;4967672;28;20130;-65
2023/07/31 05:18:29;;;;;;;16.42;6.07;;;16.20;99.90;;;;;;4962371;28;20085;-66
2023/07/31 05:20:55;;;;;;;17.63;5.53;;;16.80;99.90;;;;;;4962791;28;20441;-65
2023/07/31 05:23:21;;;;;;;18.40;6.35;;;16.30;99.90;;;;;;4972325;23;20138;-62
2023/07/31 05:25:46;;;;;;;14.98;5.82;;;16.50;99.90;;;;;;4944924;28;20704;-63
2023/07/31 05:28:12;;;;;;;18.40;6.07;;;16.10;99.90;;;;;;4937552;28;20043;-62
2023/07/31 05:30:38;;;;;;;20.67;8.05;;;;;;;;;;4952375;28;20063;-62
2023/07/31 05:33:04;;;;;;;20.35;7.90;;;16.10;99.90;;;;;;4942899;28;20042;-63
2023/07/31 05:35:30;;;;;;;19.45;7.70;;;16.10;99.90;;;;;;4934404;28;20039;-64
2023/07/31 05:37:59;;;;;;;19.88;7.45;;;16.20;99.90;;;;;;4944182;28;20550;-63
2023/07/31 05:40:24;;;;;;;26.30;8.98;;;16.20;99.90;;;;;;4934764;28;20493;-62
2023/07/31 05:42:50;;;;;;;21.88;8.60;;;16.70;99.90;;;;;;4945599;28;20127;-62
2023/07/31 05:45:16;;;;;;;27.27;8.30;;;16.00;99.90;;;;;;4934458;28;20433;-63
2023/07/31 05:47:41;;;;;;;18.98;7.60;;;16.40;99.90;;;;;;4934702;28;20402;-63
2023/07/31 05:50:07;;;;;;;18.90;6.60;;;16.20;99.90;;;;;;4962282;28;20477;-61
2023/07/31 05:52:33;;;;;;;14.27;5.50;;;16.40;99.90;;;;;;4942902;28;20046;-62
2023/07/31 05:54:59;;;;;;;15.77;4.93;;;16.50;99.90;;;;;;4949412;28;20039;-59
2023/07/31 05:57:24;;;;;;;11.43;4.00;;;16.50;99.90;;;;;;4955960;28;20054;-63
2023/07/31 05:59:50;;;;;;;11.60;3.20;;;16.80;99.90;;;;;;4939080;28;20043;-63
2023/07/31 06:02:16;;;;;;;14.30;4.28;;;;;;;;;;4953759;28;20087;-63
2023/07/31 06:04:42;;;;;;;15.05;3.95;;;16.30;99.90;;;;;;4956314;28;20042;-63
2023/07/31 06:07:08;;;;;;;10.13;3.67;;;16.40;99.90;;;;;;4953720;28;20041;-62
2023/07/31 06:09:33;;;;;;;12.07;4.65;;;16.80;99.90;;;;;;4953529;28;20047;-63
2023/07/31 06:11:59;;;;;;;11.23;4.50;;;16.70;99.90;;;;;;4966565;28;20421;-63
2023/07/31 06:14:24;;;;;;;10.63;4.63;;;16.30;99.90;;;;;;4954047;28;20038;-62
2023/07/31 06:16:50;;;;;;;12.23;4.82;;;16.70;99.90;;;;;;4967781;28;20516;-61
2023/07/31 06:19:16;;;;;;;11.93;4.90;;;16.00;99.90;;;;;;4960331;28;20090;-62
2023/07/31 06:21:44;;;;;;;15.05;5.32;;;16.60;99.90;;;;;;4969490;28;20236;-62
2023/07/31 06:24:12;;;;;;;15.93;6.90;;;16.20;99.90;;;;;;4962291;28;20097;-62
2023/07/31 06:26:37;;;;;;;14.88;5.05;;;16.70;99.90;;;;;;4969760;28;20038;-62
2023/07/31 06:29:03;;;;;;;17.20;6.45;;;16.30;99.90;;;;;;4954032;28;20032;-62
2023/07/31 06:31:28;;;;;;;25.35;6.38;;;16.80;99.90;;;;;;4954432;28;20050;-62
2023/07/31 06:33:54;;;;;;;19.80;6.75;;;16.60;99.90;;;;;;4968367;28;20043;-62
2023/07/31 06:36:20;;;;;;;20.58;6.82;;;17.10;99.90;;;;;;4952589;28;20043;-62
2023/07/31 06:38:45;;;;;;;24.27;7.82;;;16.50;99.90;;;;;;4970548;28;20023;-62
2023/07/31 06:41:11;;;;;;;19.70;6.85;;;16.40;99.90;;;;;;4964427;28;20497;-63
2023/07/31 06:43:39;;;;;;;23.95;7.32;;;16.60;99.90;;;;;;4969340;28;20035;-63
2023/07/31 06:46:09;;;;;;;17.02;6.25;;;16.90;99.90;;;;;;4963814;28;20039;-63
2023/07/31 06:48:36;;;;;;;23.77;7.43;;;16.60;99.90;;;;;;4962442;28;20035;-64
2023/07/31 06:51:02;;;;;;;19.90;6.63;;;16.50;99.90;;;;;;4968878;28;20042;-63
2023/07/31 06:53:28;;;;;;;20.55;6.65;;;16.60;99.90;;;;;;4962338;28;20039;-63
2023/07/31 06:55:54;;;;;;;21.88;5.90;;;16.70;99.90;;;;;;4970886;28;20038;-63
2023/07/31 06:58:20;;;;;;;16.77;5.35;;;16.70;99.90;;;;;;4960742;28;20520;-63
2023/07/31 07:00:46;;;;;;;17.17;4.68;;;16.70;99.90;;;;;;4970489;28;20050;-63
2023/07/31 07:03:14;;;;;;;15.32;5.20;;;16.60;99.90;;;;;;4965250;28;20482;-61
2023/07/31 07:05:40;;;;;;;14.93;4.40;;;16.60;99.90;;;;;;4958612;28;20046;-62
2023/07/31 07:08:06;;;;;;;11.68;4.25;;;16.70;99.90;;;;;;4948684;28;20405;-63
2023/07/31 07:10:31;;;;;;;13.75;5.13;;;16.80;99.90;;;;;;4960767;28;20031;-61
2023/07/31 07:12:57;;;;;;;13.88;4.22;;;17.00;99.90;;;;;;4954624;28;20042;-62
2023/07/31 07:15:22;;;;;;;11.63;4.72;;;16.50;99.90;;;;;;4957827;28;20039;-62
2023/07/31 07:17:48;;;;;;;10.07;3.88;;;17.10;99.90;;;;;;4964469;28;20245;-63
2023/07/31 07:20:15;;;;;;;7.82;3.17;;;16.90;99.90;;;;;;4948226;28;20046;-61
2023/07/31 07:22:42;;;;;;;11.75;3.35;;;16.80;99.90;;;;;;4968375;28;20129;-61
2023/07/31 07:25:09;;;;;;;9.77;3.35;;;16.70;99.90;;;;;;4966457;28;20417;-61
2023/07/31 07:27:34;;;;;;;9.40;2.92;;;17.40;99.90;;;;;;4959955;28;20042;-62
2023/07/31 07:30:00;;;;;;;9.60;3.75;;;17.00;99.90;;;;;;4969653;28;20035;-62
2023/07/31 07:32:26;;;;;;;7.93;3.10;;;16.80;99.90;;;;;;4961563;28;20394;-63
2023/07/31 07:34:52;;;;;;;8.38;2.63;;;17.00;99.90;;;;;;4962090;28;20393;-63
2023/07/31 07:37:17;;;;;;;6.45;2.45;;;17.40;99.90;;;;;;4962574;28;20425;-62
2023/07/31 07:39:43;;;;;;;11.63;3.20;;;17.40;99.90;;;;;;4963858;28;20557;-62
2023/07/31 07:42:09;;;;;;;7.18;2.67;;;17.10;99.90;;;;;;4963926;28;20042;-61
2023/07/31 07:44:35;;;;;;;6.03;2.80;;;17.50;99.90;;;;;;4961519;28;20041;-63
2023/07/31 07:47:00;;;;;;;7.20;2.40;;;17.60;99.90;;;;;;4963236;28;20456;-62
2023/07/31 07:49:26;;;;;;;8.35;2.30;;;17.10;99.90;;;;;;4962978;28;20041;-62
2023/07/31 07:51:52;;;;;;;6.18;2.15;;;17.50;99.90;;;;;;4941945;28;20031;-62
2023/07/31 07:54:17;;;;;;;7.70;3.03;;;17.50;99.90;;;;;;4932550;28;20135;-63
2023/07/31 07:56:43;;;;;;;7.40;2.20;;;17.10;99.90;;;;;;4952775;28;20509;-63
2023/07/31 07:59:09;;;;;;;5.07;1.40;;;17.00;99.90;;;;;;4923356;29;20099;-64
2023/07/31 08:01:34;;;;;;;4.75;1.40;;;17.50;99.90;;;;;;4942361;28;20042;-64
2023/07/31 08:04:01;;;;;;;6.68;1.50;;;;;;;;;;4942774;28;20078;-65
2023/07/31 08:06:27;;;;;;;3.95;1.20;;;17.50;99.90;;;;;;4934468;29;20054;-65
2023/07/31 08:08:52;;;;;;;4.95;1.52;;;17.80;99.90;;;;;;4938896;28;20096;-62
2023/07/31 08:11:18;;;;;;;4.32;1.30;;;17.90;99.90;;;;;;4934240;28;20031;-65
2023/07/31 08:13:44;;;;;;;5.95;1.40;;;17.60;99.90;;;;;;4941873;28;20035;-65
2023/07/31 08:16:09;;;;;;;3.47;1.08;;;17.60;99.90;;;;;;4931421;28;20453;-65
2023/07/31 08:18:35;;;;;;;3.92;1.27;;;17.50;99.90;;;;;;4939056;28;20064;-64
2023/07/31 08:21:04;;;;;;;5.13;1.65;;;;;;;;;;4939778;28;20036;-66
2023/07/31 08:23:30;;;;;;;6.22;1.80;;;18.00;99.90;;;;;;4937616;28;20470;-65
2023/07/31 08:25:55;;;;;;;5.90;1.90;;;17.70;99.90;;;;;;4946588;28;20127;-65
2023/07/31 08:28:21;;;;;;;5.30;1.80;;;18.20;99.90;;;;;;4939388;28;20110;-65
2023/07/31 08:30:46;;;;;;;7.43;2.20;;;17.90;99.90;;;;;;4940106;28;20126;-64
2023/07/31 08:33:12;;;;;;;8.18;2.13;;;17.50;99.90;;;;;;4942273;28;20039;-63
2023/07/31 08:35:38;;;;;;;9.10;2.40;;;18.00;99.90;;;;;;4950301;28;20042;-64
2023/07/31 08:38:04;;;;;;;5.35;1.90;;;;;;;;;;4942301;28;20115;-65
2023/07/31 08:40:30;;;;;;;7.75;2.58;;;18.00;99.90;;;;;;4945092;28;20040;-64
2023/07/31 08:43:02;;;;;;;7.80;2.00;;;17.60;99.90;;;;;;4940656;28;20105;-64
2023/07/31 08:45:29;;;;;;;9.73;2.72;;;17.70;99.90;;;;;;4943495;28;20082;-66
2023/07/31 08:47:56;;;;;;;7.97;2.15;;;18.10;99.90;;;;;;4944264;28;20102;-66
2023/07/31 08:50:22;;;;;;;6.10;1.73;;;18.10;99.90;;;;;;4942807;28;20075;-65
2023/07/31 08:52:49;;;;;;;5.80;1.92;;;18.30;99.90;;;;;;4950356;28;20062;-64
2023/07/31 08:55:17;;;;;;;5.15;1.88;;;17.90;99.90;;;;;;4938693;28;20044;-63
2023/07/31 08:57:43;;;;;;;8.07;1.70;;;18.30;99.90;;;;;;4951594;28;20035;-63
2023/07/31 09:00:10;;;;;;;4.25;1.08;;;17.80;99.90;;;;;;4949258;28;20043;-63
2023/07/31 09:02:57;;;;;;;4.32;1.20;;;17.90;78.60;;;;;;4954866;28;20054;-61
2023/07/31 09:05:25;;;;;;;4.05;1.20;;;17.80;42.30;;;;;;4941827;28;20055;-63
2023/07/31 09:07:51;;;;;;;4.80;1.20;;;17.80;69.80;;;;;;4950187;28;20035;-63
2023/07/31 09:10:17;;;;;;;4.40;1.10;;;17.90;80.30;;;;;;4941939;28;20311;-62
2023/07/31 09:12:43;;;;;;;6.90;1.50;;;18.10;82.80;;;;;;4954662;28;20129;-62
2023/07/31 09:15:09;;;;;;;4.15;1.38;;;18.00;99.90;;;;;;4953360;28;20070;-62
2023/07/31 09:17:36;;;;;;;6.32;2.00;;;17.40;99.90;;;;;;4954190;28;20460;-61
2023/07/31 09:20:24;;;;;;;5.95;1.55;;;18.30;99.90;;;;;;4942425;28;20071;-62
2023/07/31 09:22:50;;;;;;;6.13;1.98;;;17.90;99.90;;;;;;4946490;28;20041;-62
2023/07/31 09:25:18;;;;;;;5.30;1.63;;;17.90;99.90;;;;;;4941161;28;20043;-63
2023/07/31 09:27:57;;;;;;;3.78;1.30;;;18.40;99.90;;;;;;4938861;28;20069;-63
2023/07/31 09:30:22;;;;;;;4.57;1.10;;;17.70;99.90;;;;;;4944067;28;20110;-62
2023/07/31 09:32:49;;;;;;;4.97;1.50;;;17.90;99.90;;;;;;4937563;28;20127;-63
2023/07/31 09:35:20;;;;;;;3.88;1.20;;;18.20;99.90;;;;;;4941786;28;20046;-62
2023/07/31 09:37:56;;;;;;;4.60;1.40;;;18.00;99.90;;;;;;4937843;28;20047;-63
2023/07/31 09:40:33;;;;;;;4.53;1.33;;;17.70;99.90;;;;;;4946335;28;20039;-62
2023/07/31 09:43:04;;;;;;;6.05;1.35;;;17.90;99.90;;;;;;4951096;28;20044;-63
2023/07/31 09:45:33;;;;;;;3.92;1.30;;;17.60;99.90;;;;;;4954362;28;20046;-63
2023/07/31 09:47:59;;;;;;;5.28;1.40;;;17.50;99.90;;;;;;4946258;28;20074;-63
2023/07/31 09:50:25;;;;;;;5.88;1.70;;;18.10;99.90;;;;;;4939220;28;20063;-62
2023/07/31 09:52:52;;;;;;;5.40;1.67;;;18.20;99.90;;;;;;4942123;28;20051;-62
2023/07/31 09:55:19;;;;;;;5.78;1.77;;;18.20;99.90;;;;;;4942973;28;20465;-63
2023/07/31 09:57:47;;;;;;;5.90;2.08;;;17.60;99.90;;;;;;4943375;28;20048;-62
2023/07/31 10:00:15;;;;;;;6.45;2.13;;;18.00;99.90;;;;;;4937544;28;20565;-63
2023/07/31 10:02:43;;;;;;;6.85;2.40;;;17.70;99.90;;;;;;4947382;28;20043;-63
2023/07/31 10:05:08;;;;;;;6.05;2.50;;;18.10;99.90;;;;;;4943876;28;20079;-63
2023/07/31 10:07:40;;;;;;;7.53;2.55;;;18.00;99.90;;;;;;4947675;28;20066;-63
2023/07/31 10:10:08;;;;;;;6.32;2.55;;;;;;;;;;4949427;28;20078;-63
2023/07/31 10:12:34;;;;;;;5.82;2.33;;;18.60;99.90;;;;;;4938439;28;20040;-63
2023/07/31 10:15:00;;;;;;;8.02;2.47;;;18.10;99.90;;;;;;4942720;28;20049;-63
2023/07/31 10:17:26;;;;;;;9.45;2.85;;;18.30;99.90;;;;;;4941849;28;20695;-63
2023/07/31 10:19:53;;;;;;;6.72;3.10;;;18.70;99.90;;;;;;4949412;28;20514;-63
2023/07/31 10:22:22;;;;;;;7.55;3.38;;;18.70;99.90;;;;;;4946297;28;20043;-63
2023/07/31 10:24:50;;;;;;;8.90;3.47;;;18.90;99.90;;;;;;4953313;28;20434;-63
2023/07/31 10:27:16;;;;;;;7.28;2.90;;;18.40;99.90;;;;;;4942704;28;20038;-64
2023/07/31 10:29:44;;;;;;;5.70;2.00;;;18.70;99.90;;;;;;4953413;28;20381;-63
2023/07/31 10:32:12;;;;;;;5.63;1.80;;;18.10;89.20;;;;;;4941254;28;20044;-62
2023/07/31 10:34:39;;;;;;;7.75;2.20;;;18.10;99.90;;;;;;4941192;28;20050;-63
2023/07/31 10:37:22;;;;;;;4.90;1.50;;;18.80;99.90;;;;;;4935297;28;20395;-63
2023/07/31 10:40:10;;;;;;;6.43;2.08;;;18.10;91.30;;;;;;4938852;28;20058;-63
2023/07/31 10:42:39;;;;;;;6.78;2.35;;;17.90;99.90;;;;;;4942857;28;20111;-62
2023/07/31 10:45:07;;;;;;;7.40;2.40;;;18.10;99.90;;;;;;4942704;28;20528;-63
2023/07/31 10:47:43;;;;;;;9.32;3.15;;;17.90;99.90;;;;;;4939660;28;20043;-63
2023/07/31 10:50:28;;;;;;;7.75;3.00;;;18.30;99.90;;;;;;4949855;28;20401;-63
2023/07/31 10:52:55;;;;;;;9.50;3.05;;;18.50;99.90;;;;;;4951663;28;20094;-64
2023/07/31 10:55:29;;;;;;;9.13;3.20;;;18.70;99.90;;;;;;4938272;28;20039;-63
2023/07/31 10:58:06;;;;;;;8.20;2.85;;;18.90;99.90;;;;;;4947231;28;20070;-64
2023/07/31 11:00:33;;;;;;;6.80;2.75;;;18.60;4.50;;;;;;4943030;28;20028;-63
2023/07/31 11:03:16;;;;;;;8.27;3.40;;;18.60;27.40;;;;;;4948933;28;20405;-62
2023/07/31 11:05:45;;;;;;;8.27;3.33;;;18.90;2.70;;;;;;4919257;29;20516;-63
2023/07/31 11:08:23;;;;;;;7.72;3.35;;;18.70;1.00;;;;;;4940236;28;20577;-62
2023/07/31 11:11:01;;;;;;;6.95;2.55;;;18.90;19.80;;;;;;4947025;28;20101;-63
2023/07/31 11:13:34;;;;;;;6.68;2.75;;;18.10;29.10;;;;;;4950684;28;20047;-60
2023/07/31 11:16:00;;;;;;;7.90;2.40;;;18.20;37.00;;;;;;4936169;28;20413;-62
2023/07/31 11:18:27;;;;;;;8.13;3.10;;;18.10;96.40;;;;;;4939503;28;20027;-61
2023/07/31 11:20:53;;;;;;;9.75;3.00;;;18.10;93.60;;;;;;4944807;28;20035;-63
2023/07/31 11:23:20;;;;;;;7.22;3.28;;;18.50;99.90;;;;;;4937298;28;20074;-63
2023/07/31 11:25:46;;;;;;;10.43;3.60;;;18.50;99.90;;;;;;4944356;28;20043;-62
2023/07/31 11:28:13;;;;;;;10.27;3.55;;;17.90;99.90;;;;;;4938037;28;20039;-62
2023/07/31 11:30:43;;;;;;;13.07;3.97;;;18.80;99.90;;;;;;4944223;28;20405;-63
2023/07/31 11:33:11;;;;;;;7.82;3.25;;;18.10;99.90;;;;;;4943803;28;20078;-63
2023/07/31 11:35:43;;;;;;;9.27;3.28;;;18.00;99.90;;;;;;4933049;28;20456;-61
2023/07/31 11:38:09;;;;;;;7.63;3.58;;;18.50;99.90;;;;;;4949598;28;20071;-62
2023/07/31 11:40:43;;;;;;;6.82;2.13;;;18.50;99.90;;;;;;4939898;28;20090;-62
2023/07/31 11:43:08;;;;;;;6.60;2.60;;;18.90;99.90;;;;;;4949313;28;20050;-63
2023/07/31 11:45:35;;;;;;;7.05;2.30;;;19.20;55.10;;;;;;4946189;28;20047;-63
2023/07/31 11:48:01;;;;;;;6.05;2.20;;;19.00;29.40;;;;;;4949901;28;20037;-63
2023/07/31 11:50:27;;;;;;;4.93;2.08;;;18.50;21.50;;;;;;4952129;28;20098;-62
2023/07/31 11:52:59;;;;;;;8.57;3.33;;;18.80;4.30;;;;;;4944022;28;20051;-63
2023/07/31 11:55:25;;;;;;;8.20;2.40;;;18.50;1.00;;;;;;4944722;28;20050;-62
2023/07/31 11:57:53;;;;;;;11.10;3.78;;;18.60;1.00;;;;;;4950928;28;20068;-63
2023/07/31 12:00:19;;;;;;;7.45;3.15;;;18.70;46.50;;;;;;4943481;28;20081;-62
2023/07/31 12:02:45;;;;;;;8.35;3.30;;;19.00;76.80;;;;;;4945406;28;20478;-63
2023/07/31 12:05:14;;;;;;;9.73;3.40;;;18.90;92.80;;;;;;4951413;28;20077;-63
2023/07/31 12:07:51;;;;;;;6.90;2.92;;;18.70;63.80;;;;;;4948892;28;20027;-63
2023/07/31 12:10:32;;;;;;;8.00;2.90;;;18.80;1.00;;;;;;4944756;28;20042;-62
2023/07/31 12:13:06;;;;;;;7.30;3.00;;;18.70;1.00;;;;;;4951351;28;20062;-63
2023/07/31 12:15:39;;;;;;;;;;;18.90;99.90;;;;;;4939515;28;20046;-63
2023/07/31 12:18:10;;;;;;;10.52;3.72;;;19.10;1.00;;;;;;4950967;28;19918;-62
2023/07/31 12:20:41;;;;;;;9.57;3.08;;;19.30;99.90;;;;;;4943323;28;20074;-62
2023/07/31 12:23:07;;;;;;;12.00;4.30;;;19.30;99.90;;;;;;4945442;28;20638;-61
2023/07/31 12:25:33;;;;;;;9.52;3.53;;;19.00;1.00;;;;;;4950083;28;20044;-63
2023/07/31 12:28:05;;;;;;;11.48;4.20;;;18.90;1.00;;;;;;4950596;28;20035;-63
2023/07/31 12:30:34;;;;;;;18.38;4.13;;;19.10;1.00;;;;;;4942115;28;20118;-62
2023/07/31 12:33:05;;;;;;;12.90;3.88;;;18.90;99.90;;;;;;4943118;28;20047;-62
2023/07/31 12:35:38;;;;;;;11.23;4.53;;;;;;;;;;4943320;28;20497;-63
2023/07/31 12:38:04;;;;;;;10.80;3.70;;;19.00;99.90;;;;;;4948545;28;20043;-63
2023/07/31 12:40:29;;;;;;;9.80;3.55;;;18.70;99.90;;;;;;4943303;28;20513;-63
2023/07/31 12:42:55;;;;;;;13.77;4.07;;;18.80;1.00;;;;;;4950997;28;20074;-62
2023/07/31 12:45:21;;;;;;;12.60;3.88;;;18.80;1.00;;;;;;4950671;28;20043;-63
2023/07/31 12:47:47;;;;;;;12.25;4.95;;;19.00;1.00;;;;;;4950371;28;20525;-62